createdAt,value
2023-01-07T00:00:00.928Z,47.96
2023-01-07T00:01:00.919Z,48.15
2023-01-07T00:02:00.932Z,48.06
2023-01-07T00:03:00.990Z,47.96
2023-01-07T00:04:01.039Z,47.96
2023-01-07T00:05:01.010Z,48.06
2023-01-07T00:06:00.962Z,48.15
2023-01-07T00:07:00.976Z,48.15
2023-01-07T00:08:00.980Z,48.25
2023-01-07T00:09:00.992Z,47.96
2023-01-07T00:10:00.999Z,47.68
2023-01-07T00:11:01.004Z,47.68
2023-01-07T00:12:01.008Z,48.06
2023-01-07T00:13:01.013Z,48.54
2023-01-07T00:14:01.168Z,47.87
2023-01-07T00:15:01.027Z,48.15
2023-01-07T00:16:01.091Z,47.87
2023-01-07T00:17:01.045Z,47.02
2023-01-07T00:18:01.053Z,47.02
2023-01-07T00:19:01.066Z,47.68
2023-01-07T00:20:01.077Z,48.15
2023-01-07T00:21:01.086Z,48.72
2023-01-07T00:22:01.088Z,48.63
2023-01-07T00:23:01.096Z,48.63
2023-01-07T00:24:01.105Z,48.82
2023-01-07T00:25:01.115Z,48.82
2023-01-07T00:26:01.122Z,48.63
2023-01-07T00:27:01.120Z,48.91
2023-01-07T00:28:01.139Z,48.91
2023-01-07T00:29:01.220Z,49.29
2023-01-07T00:30:01.269Z,49.48
2023-01-07T00:31:01.228Z,49.48
2023-01-07T00:32:01.175Z,49.19
2023-01-07T00:33:01.177Z,49.38
2023-01-07T00:34:01.180Z,48.82
2023-01-07T00:35:01.182Z,48.34
2023-01-07T00:36:01.197Z,48.54
2023-01-07T00:37:01.196Z,48.72
2023-01-07T00:38:01.210Z,48.63
2023-01-07T00:39:01.213Z,48.82
2023-01-07T00:40:01.225Z,49.19
2023-01-07T00:41:01.235Z,49.86
2023-01-07T00:42:01.240Z,49.86
2023-01-07T00:43:01.276Z,49.57
2023-01-07T00:44:01.254Z,49.38
2023-01-07T00:45:01.315Z,48.54
2023-01-07T00:46:01.379Z,49.29
2023-01-07T00:47:01.278Z,49.19
2023-01-07T00:48:01.304Z,49.38
2023-01-07T00:49:01.288Z,49.10
2023-01-07T00:50:01.303Z,49.10
2023-01-07T00:51:01.307Z,49.48
2023-01-07T00:52:01.322Z,49.48
2023-01-07T00:53:01.324Z,49.10
2023-01-07T00:54:01.343Z,48.91
2023-01-07T00:55:01.336Z,49.10
2023-01-07T00:56:01.344Z,49.01
2023-01-07T00:57:01.348Z,49.10
2023-01-07T00:58:01.357Z,49.48
2023-01-07T00:59:01.372Z,48.72
2023-01-07T01:00:01.386Z,48.72
2023-01-07T01:01:01.517Z,48.72
2023-01-07T01:02:01.677Z,48.63
2023-01-07T01:03:01.403Z,48.06
2023-01-07T01:04:01.410Z,48.25
2023-01-07T01:05:01.415Z,48.15
2023-01-07T01:06:01.520Z,48.54
2023-01-07T01:07:01.423Z,47.87
2023-01-07T01:08:01.441Z,48.54
2023-01-07T01:09:01.437Z,49.48
2023-01-07T01:10:01.447Z,49.29
2023-01-07T01:11:01.452Z,49.29
2023-01-07T01:12:01.462Z,49.57
2023-01-07T01:13:01.481Z,49.76
2023-01-07T01:14:01.473Z,50.05
2023-01-07T01:15:01.481Z,49.57
2023-01-07T01:16:01.557Z,49.38
2023-01-07T01:17:01.497Z,49.48
2023-01-07T01:18:01.627Z,49.48
2023-01-07T01:19:01.517Z,49.57
2023-01-07T01:20:01.529Z,50.15
2023-01-07T01:21:01.529Z,50.52
2023-01-07T01:22:01.555Z,50.43
2023-01-07T01:23:01.554Z,50.34
2023-01-07T01:24:01.565Z,50.43
2023-01-07T01:25:01.557Z,50.43
2023-01-07T01:26:01.569Z,50.62
2023-01-07T01:27:01.572Z,50.78
2023-01-07T01:28:01.590Z,50.88
2023-01-07T01:29:01.599Z,51.16
2023-01-07T01:30:01.598Z,50.97
2023-01-07T01:31:01.721Z,51.07
2023-01-07T01:32:01.619Z,50.78
2023-01-07T01:33:01.616Z,51.16
2023-01-07T01:34:01.644Z,50.99
2023-01-07T01:35:01.634Z,50.71
2023-01-07T01:36:01.641Z,50.52
2023-01-07T01:37:01.646Z,50.43
2023-01-07T01:38:01.658Z,49.86
2023-01-07T01:39:01.681Z,50.05
2023-01-07T01:40:01.671Z,50.34
2023-01-07T01:41:01.685Z,50.05
2023-01-07T01:42:01.688Z,50.24
2023-01-07T01:43:01.691Z,50.05
2023-01-07T01:44:01.714Z,49.76
2023-01-07T01:45:01.705Z,49.29
2023-01-07T01:46:01.733Z,49.19
2023-01-07T01:47:01.804Z,48.72
2023-01-07T01:48:01.728Z,48.34
2023-01-07T01:49:01.735Z,47.96
2023-01-07T01:50:01.865Z,48.25
2023-01-07T01:51:01.762Z,47.87
2023-01-07T01:52:01.758Z,47.96
2023-01-07T01:53:01.779Z,48.91
2023-01-07T01:54:01.772Z,48.63
2023-01-07T01:55:01.775Z,48.72
2023-01-07T01:56:01.794Z,48.63
2023-01-07T01:57:01.790Z,48.63
2023-01-07T01:58:01.804Z,47.87
2023-01-07T01:59:01.808Z,47.87
2023-01-07T02:00:01.823Z,49.01
2023-01-07T02:01:02.005Z,48.54
2023-01-07T02:02:01.950Z,48.54
2023-01-07T02:03:01.833Z,48.34
2023-01-07T02:04:01.843Z,48.72
2023-01-07T02:05:01.850Z,48.72
2023-01-07T02:06:01.975Z,48.82
2023-01-07T02:07:01.874Z,49.38
2023-01-07T02:08:01.874Z,49.38
2023-01-07T02:09:01.880Z,49.67
2023-01-07T02:10:01.896Z,49.57
2023-01-07T02:11:01.892Z,49.67
2023-01-07T02:12:01.901Z,49.57
2023-01-07T02:13:01.919Z,49.01
2023-01-07T02:14:01.917Z,49.57
2023-01-07T02:15:01.929Z,49.76
2023-01-07T02:16:02.050Z,49.10
2023-01-07T02:17:01.946Z,49.48
2023-01-07T02:18:01.953Z,49.67
2023-01-07T02:19:01.950Z,49.76
2023-01-07T02:20:01.998Z,50.24
2023-01-07T02:21:01.974Z,50.34
2023-01-07T02:22:01.997Z,50.52
2023-01-07T02:23:02.001Z,49.67
2023-01-07T02:24:02.005Z,49.86
2023-01-07T02:25:01.996Z,50.24
2023-01-07T02:26:02.006Z,50.52
2023-01-07T02:27:02.014Z,49.67
2023-01-07T02:28:02.028Z,50.52
2023-01-07T02:29:02.028Z,49.57
2023-01-07T02:30:02.039Z,49.76
2023-01-07T02:31:02.043Z,49.38
2023-01-07T02:32:02.051Z,49.10
2023-01-07T02:33:02.056Z,49.67
2023-01-07T02:34:02.065Z,49.67
2023-01-07T02:35:02.075Z,49.67
2023-01-07T02:36:02.077Z,49.67
2023-01-07T02:37:02.088Z,50.24
2023-01-07T02:38:02.214Z,50.34
2023-01-07T02:39:02.101Z,50.62
2023-01-07T02:40:02.118Z,50.62
2023-01-07T02:41:02.138Z,50.05
2023-01-07T02:42:02.218Z,50.24
2023-01-07T02:43:02.147Z,50.05
2023-01-07T02:44:02.143Z,50.52
2023-01-07T02:45:02.147Z,50.52
2023-01-07T02:46:02.236Z,50.24
2023-01-07T02:47:02.167Z,50.24
2023-01-07T02:48:02.165Z,49.38
2023-01-07T02:49:02.196Z,49.10
2023-01-07T02:50:02.202Z,49.10
2023-01-07T02:51:02.208Z,49.57
2023-01-07T02:52:02.200Z,49.48
2023-01-07T02:53:02.212Z,49.86
2023-01-07T02:54:02.322Z,49.86
2023-01-07T02:55:02.221Z,49.48
2023-01-07T02:56:02.225Z,49.01
2023-01-07T02:57:02.232Z,48.63
2023-01-07T02:58:02.236Z,48.15
2023-01-07T02:59:02.248Z,48.63
2023-01-07T03:00:02.260Z,48.63
2023-01-07T03:01:02.348Z,48.72
2023-01-07T03:02:02.365Z,48.34
2023-01-07T03:03:02.286Z,48.63
2023-01-07T03:04:02.347Z,48.72
2023-01-07T03:05:02.298Z,49.48
2023-01-07T03:06:02.294Z,49.19
2023-01-07T03:07:02.320Z,49.86
2023-01-07T03:08:02.334Z,49.76
2023-01-07T03:09:02.348Z,50.15
2023-01-07T03:10:02.445Z,50.90
2023-01-07T03:11:02.338Z,51.09
2023-01-07T03:12:02.338Z,51.18
2023-01-07T03:13:02.351Z,50.81
2023-01-07T03:14:02.355Z,51.09
2023-01-07T03:15:02.390Z,50.99
2023-01-07T03:16:02.378Z,50.71
2023-01-07T03:17:02.391Z,51.07
2023-01-07T03:18:02.385Z,51.16
2023-01-07T03:19:02.392Z,51.64
2023-01-07T03:20:02.396Z,51.07
2023-01-07T03:21:02.407Z,51.45
2023-01-07T03:22:02.412Z,51.92
2023-01-07T03:23:02.421Z,51.45
2023-01-07T03:24:02.423Z,52.01
2023-01-07T03:25:02.433Z,50.97
2023-01-07T03:26:02.556Z,50.78
2023-01-07T03:27:02.451Z,51.16
2023-01-07T03:28:02.458Z,50.88
2023-01-07T03:29:02.464Z,50.97
2023-01-07T03:30:02.466Z,51.16
2023-01-07T03:31:02.481Z,51.82
2023-01-07T03:32:02.610Z,51.82
2023-01-07T03:33:02.499Z,51.92
2023-01-07T03:34:02.501Z,51.82
2023-01-07T03:35:02.510Z,51.82
2023-01-07T03:36:02.510Z,52.29
2023-01-07T03:37:02.520Z,52.48
2023-01-07T03:38:02.535Z,52.48
2023-01-07T03:39:02.538Z,52.48
2023-01-07T03:40:02.561Z,52.48
2023-01-07T03:41:02.549Z,52.39
2023-01-07T03:42:02.667Z,52.58
2023-01-07T03:43:02.565Z,51.82
2023-01-07T03:44:02.671Z,51.82
2023-01-07T03:45:02.602Z,51.92
2023-01-07T03:46:02.683Z,51.92
2023-01-07T03:47:02.590Z,51.54
2023-01-07T03:48:02.597Z,52.29
2023-01-07T03:49:02.615Z,52.48
2023-01-07T03:50:02.616Z,52.29
2023-01-07T03:51:02.622Z,52.39
2023-01-07T03:52:02.625Z,52.48
2023-01-07T03:53:02.658Z,51.82
2023-01-07T03:54:02.649Z,51.73
2023-01-07T03:55:02.754Z,52.01
2023-01-07T03:56:02.653Z,52.48
2023-01-07T03:57:02.690Z,52.29
2023-01-07T03:58:02.784Z,52.39
2023-01-07T03:59:02.678Z,52.11
2023-01-07T04:00:02.693Z,52.20
2023-01-07T04:01:02.838Z,52.20
2023-01-07T04:02:02.880Z,52.48
2023-01-07T04:03:02.713Z,52.20
2023-01-07T04:04:03.540Z,52.20
2023-01-07T04:05:02.726Z,52.20
2023-01-07T04:06:02.728Z,52.68
2023-01-07T04:07:02.739Z,52.58
2023-01-07T04:08:02.746Z,52.48
2023-01-07T04:09:02.755Z,52.39
2023-01-07T04:10:02.768Z,52.96
2023-01-07T04:11:02.785Z,52.20
2023-01-07T04:12:02.786Z,51.73
2023-01-07T04:13:02.777Z,51.82
2023-01-07T04:14:02.900Z,51.82
2023-01-07T04:15:02.800Z,52.39
2023-01-07T04:16:02.800Z,52.58
2023-01-07T04:17:02.806Z,52.20
2023-01-07T04:18:02.816Z,51.92
2023-01-07T04:19:02.824Z,51.73
2023-01-07T04:20:02.821Z,51.82
2023-01-07T04:21:02.835Z,51.73
2023-01-07T04:22:02.845Z,52.29
2023-01-07T04:23:02.855Z,52.29
2023-01-07T04:24:02.856Z,52.29
2023-01-07T04:25:02.863Z,52.11
2023-01-07T04:26:02.867Z,52.20
2023-01-07T04:27:02.890Z,52.29
2023-01-07T04:28:02.895Z,51.82
2023-01-07T04:29:02.895Z,51.82
2023-01-07T04:30:03.011Z,51.45
2023-01-07T04:31:02.927Z,51.45
2023-01-07T04:32:02.911Z,51.92
2023-01-07T04:33:02.930Z,52.29
2023-01-07T04:34:02.923Z,52.39
2023-01-07T04:35:02.934Z,52.29
2023-01-07T04:36:02.939Z,52.39
2023-01-07T04:37:02.948Z,51.64
2023-01-07T04:38:02.955Z,51.64
2023-01-07T04:39:02.965Z,51.73
2023-01-07T04:40:02.996Z,51.82
2023-01-07T04:41:02.979Z,52.48
2023-01-07T04:42:02.982Z,52.29
2023-01-07T04:43:02.993Z,52.48
2023-01-07T04:44:02.997Z,52.29
2023-01-07T04:45:03.022Z,52.20
2023-01-07T04:46:03.339Z,52.39
2023-01-07T04:47:03.017Z,52.68
2023-01-07T04:48:03.034Z,52.68
2023-01-07T04:49:03.032Z,52.48
2023-01-07T04:50:03.036Z,52.29
2023-01-07T04:51:03.043Z,52.11
2023-01-07T04:52:03.066Z,51.92
2023-01-07T04:53:03.071Z,51.73
2023-01-07T04:54:03.063Z,51.54
2023-01-07T04:55:03.073Z,51.64
2023-01-07T04:56:03.086Z,51.64
2023-01-07T04:57:03.096Z,51.54
2023-01-07T04:58:03.092Z,51.82
2023-01-07T04:59:03.100Z,51.82
2023-01-07T05:00:03.108Z,51.82
2023-01-07T05:01:03.341Z,52.20
2023-01-07T05:02:03.390Z,52.48
2023-01-07T05:03:03.135Z,52.20
2023-01-07T05:04:03.219Z,52.39
2023-01-07T05:05:03.148Z,52.20
2023-01-07T05:06:03.148Z,52.01
2023-01-07T05:07:03.159Z,51.16
2023-01-07T05:08:03.162Z,50.97
2023-01-07T05:09:03.174Z,51.16
2023-01-07T05:10:03.177Z,51.07
2023-01-07T05:11:03.195Z,51.54
2023-01-07T05:12:03.198Z,52.48
2023-01-07T05:13:05.075Z,52.20
2023-01-07T05:14:03.202Z,51.54
2023-01-07T05:15:03.241Z,51.45
2023-01-07T05:16:03.221Z,52.11
2023-01-07T05:17:03.269Z,51.64
2023-01-07T05:18:03.379Z,50.97
2023-01-07T05:19:03.251Z,51.16
2023-01-07T05:20:03.255Z,51.16
2023-01-07T05:21:03.267Z,51.07
2023-01-07T05:22:03.302Z,51.16
2023-01-07T05:23:03.279Z,51.16
2023-01-07T05:24:03.283Z,51.16
2023-01-07T05:25:03.300Z,50.69
2023-01-07T05:26:03.299Z,50.78
2023-01-07T05:27:03.317Z,51.07
2023-01-07T05:28:03.322Z,50.78
2023-01-07T05:29:03.327Z,51.07
2023-01-07T05:30:03.317Z,50.49
2023-01-07T05:31:03.433Z,50.21
2023-01-07T05:32:03.332Z,50.31
2023-01-07T05:33:03.352Z,50.31
2023-01-07T05:34:03.481Z,50.21
2023-01-07T05:35:03.384Z,50.59
2023-01-07T05:36:03.372Z,50.88
2023-01-07T05:37:03.378Z,51.16
2023-01-07T05:38:03.391Z,51.16
2023-01-07T05:39:03.386Z,51.16
2023-01-07T05:40:03.390Z,51.07
2023-01-07T05:41:03.435Z,50.97
2023-01-07T05:42:03.405Z,50.97
2023-01-07T05:43:03.423Z,50.97
2023-01-07T05:44:03.431Z,50.02
2023-01-07T05:45:03.463Z,50.49
2023-01-07T05:46:03.500Z,50.21
2023-01-07T05:47:03.444Z,50.12
2023-01-07T05:48:03.445Z,49.55
2023-01-07T05:49:03.457Z,49.65
2023-01-07T05:50:03.573Z,50.40
2023-01-07T05:51:03.479Z,50.59
2023-01-07T05:52:03.510Z,50.78
2023-01-07T05:53:03.488Z,50.88
2023-01-07T05:54:03.489Z,50.97
2023-01-07T05:55:03.505Z,50.88
2023-01-07T05:56:03.520Z,51.26
2023-01-07T05:57:03.514Z,51.07
2023-01-07T05:58:03.537Z,50.40
2023-01-07T05:59:03.535Z,50.21
2023-01-07T06:00:03.532Z,50.59
2023-01-07T06:01:03.578Z,50.97
2023-01-07T06:02:03.577Z,51.64
2023-01-07T06:03:03.556Z,51.54
2023-01-07T06:04:03.559Z,51.82
2023-01-07T06:05:03.698Z,51.82
2023-01-07T06:06:03.687Z,51.45
2023-01-07T06:07:03.586Z,51.64
2023-01-07T06:08:03.591Z,52.20
2023-01-07T06:09:03.598Z,52.29
2023-01-07T06:10:03.606Z,52.48
2023-01-07T06:11:03.608Z,52.68
2023-01-07T06:12:03.628Z,53.06
2023-01-07T06:13:03.632Z,53.34
2023-01-07T06:14:03.661Z,53.03
2023-01-07T06:15:03.689Z,52.77
2023-01-07T06:16:03.684Z,52.68
2023-01-07T06:17:03.652Z,53.15
2023-01-07T06:18:03.656Z,53.41
2023-01-07T06:19:03.682Z,53.06
2023-01-07T06:20:03.669Z,52.29
2023-01-07T06:21:03.705Z,51.82
2023-01-07T06:22:03.795Z,52.01
2023-01-07T06:23:03.693Z,51.82
2023-01-07T06:24:03.722Z,52.20
2023-01-07T06:25:03.705Z,51.82
2023-01-07T06:26:03.729Z,52.11
2023-01-07T06:27:03.720Z,52.87
2023-01-07T06:28:03.723Z,52.48
2023-01-07T06:29:03.751Z,52.87
2023-01-07T06:30:03.747Z,52.29
2023-01-07T06:31:03.813Z,52.77
2023-01-07T06:32:03.756Z,52.96
2023-01-07T06:33:03.765Z,52.39
2023-01-07T06:34:03.767Z,52.68
2023-01-07T06:35:03.780Z,52.48
2023-01-07T06:36:03.776Z,52.58
2023-01-07T06:37:03.788Z,52.77
2023-01-07T06:38:03.972Z,52.77
2023-01-07T06:39:03.807Z,52.96
2023-01-07T06:40:03.820Z,52.94
2023-01-07T06:41:03.820Z,52.48
2023-01-07T06:42:03.825Z,52.48
2023-01-07T06:43:03.844Z,52.39
2023-01-07T06:44:03.836Z,52.48
2023-01-07T06:45:03.840Z,52.39
2023-01-07T06:46:03.943Z,52.20
2023-01-07T06:47:03.878Z,52.20
2023-01-07T06:48:03.877Z,52.01
2023-01-07T06:49:03.877Z,52.29
2023-01-07T06:50:03.884Z,51.82
2023-01-07T06:51:03.890Z,51.54
2023-01-07T06:52:03.890Z,51.82
2023-01-07T06:53:03.898Z,51.82
2023-01-07T06:54:04.113Z,51.16
2023-01-07T06:55:03.914Z,51.16
2023-01-07T06:56:03.917Z,50.97
2023-01-07T06:57:03.921Z,50.97
2023-01-07T06:58:03.928Z,50.78
2023-01-07T06:59:03.937Z,51.16
2023-01-07T07:00:03.951Z,51.07
2023-01-07T07:01:04.052Z,51.16
2023-01-07T07:02:04.042Z,50.69
2023-01-07T07:03:04.045Z,51.26
2023-01-07T07:04:03.968Z,51.07
2023-01-07T07:05:04.000Z,50.69
2023-01-07T07:06:03.989Z,50.21
2023-01-07T07:07:03.996Z,50.12
2023-01-07T07:08:04.015Z,51.16
2023-01-07T07:09:04.003Z,50.88
2023-01-07T07:10:04.129Z,51.07
2023-01-07T07:11:04.013Z,51.16
2023-01-07T07:12:04.027Z,51.16
2023-01-07T07:13:04.052Z,50.69
2023-01-07T07:14:04.041Z,50.78
2023-01-07T07:15:04.088Z,50.49
2023-01-07T07:16:04.111Z,51.16
2023-01-07T07:17:04.052Z,50.88
2023-01-07T07:18:04.068Z,51.07
2023-01-07T07:19:04.066Z,51.35
2023-01-07T07:20:04.077Z,52.01
2023-01-07T07:21:04.085Z,51.82
2023-01-07T07:22:04.869Z,51.82
2023-01-07T07:23:04.092Z,51.35
2023-01-07T07:24:04.106Z,51.64
2023-01-07T07:26:04.229Z,51.35
2023-01-07T07:27:04.124Z,51.16
2023-01-07T07:28:04.132Z,52.01
2023-01-07T07:29:04.145Z,51.35
2023-01-07T07:30:04.147Z,51.82
2023-01-07T07:31:04.221Z,52.39
2023-01-07T07:32:04.167Z,52.29
2023-01-07T07:33:04.163Z,52.29
2023-01-07T07:34:04.185Z,52.68
2023-01-07T07:35:04.182Z,52.29
2023-01-07T07:36:04.185Z,52.68
2023-01-07T07:37:04.200Z,52.68
2023-01-07T07:38:04.194Z,52.39
2023-01-07T07:39:04.208Z,52.20
2023-01-07T07:40:04.246Z,52.48
2023-01-07T07:41:04.225Z,51.82
2023-01-07T07:42:04.342Z,52.20
2023-01-07T07:43:10.725Z,51.82
2023-01-07T07:44:04.252Z,51.82
2023-01-07T07:45:04.252Z,51.82
2023-01-07T07:46:04.393Z,52.01
2023-01-07T07:47:04.263Z,51.26
2023-01-07T07:48:04.262Z,51.26
2023-01-07T07:49:04.273Z,51.07
2023-01-07T07:50:04.280Z,51.16
2023-01-07T07:51:04.292Z,50.78
2023-01-07T07:52:04.291Z,50.49
2023-01-07T07:53:04.300Z,50.31
2023-01-07T07:54:04.306Z,50.49
2023-01-07T07:55:20.082Z,50.21
2023-01-07T07:56:04.321Z,50.12
2023-01-07T07:57:04.328Z,50.49
2023-01-07T07:58:04.451Z,50.40
2023-01-07T07:59:04.346Z,50.78
2023-01-07T08:00:04.355Z,51.07
2023-01-07T08:01:04.411Z,50.49
2023-01-07T08:02:04.411Z,50.21
2023-01-07T08:03:04.506Z,50.40
2023-01-07T08:04:04.369Z,50.88
2023-01-07T08:05:04.384Z,50.88
2023-01-07T08:06:04.396Z,50.69
2023-01-07T08:07:04.395Z,51.07
2023-01-07T08:08:04.416Z,51.07
2023-01-07T08:09:04.410Z,51.16
2023-01-07T08:10:04.418Z,52.11
2023-01-07T08:11:04.422Z,52.01
2023-01-07T08:12:04.435Z,51.54
2023-01-07T08:13:04.441Z,51.64
2023-01-07T08:14:04.549Z,51.07
2023-01-07T08:15:04.458Z,51.64
2023-01-07T08:16:04.516Z,51.26
2023-01-07T08:17:04.478Z,51.26
2023-01-07T08:18:04.469Z,51.92
2023-01-07T08:19:04.485Z,51.73
2023-01-07T08:20:04.500Z,52.01
2023-01-07T08:21:04.488Z,52.01
2023-01-07T08:22:04.493Z,52.01
2023-01-07T08:23:04.507Z,51.16
2023-01-07T08:24:04.506Z,51.92
2023-01-07T08:25:04.517Z,51.26
2023-01-07T08:26:04.539Z,50.59
2023-01-07T08:27:04.530Z,50.40
2023-01-07T08:28:04.533Z,50.88
2023-01-07T08:29:04.544Z,51.07
2023-01-07T08:30:04.679Z,51.54
2023-01-07T08:31:04.634Z,51.92
2023-01-07T08:32:04.569Z,52.11
2023-01-07T08:33:04.590Z,51.92
2023-01-07T08:34:04.582Z,51.64
2023-01-07T08:35:04.595Z,51.73
2023-01-07T08:36:09.239Z,52.01
2023-01-07T08:37:04.603Z,51.73
2023-01-07T08:38:04.603Z,51.26
2023-01-07T08:39:04.615Z,51.26
2023-01-07T08:40:05.905Z,51.82
2023-01-07T08:41:04.663Z,51.35
2023-01-07T08:42:04.630Z,51.16
2023-01-07T08:43:04.641Z,51.35
2023-01-07T08:44:04.642Z,50.90
2023-01-07T08:45:04.656Z,50.34
2023-01-07T08:46:04.770Z,51.28
2023-01-07T08:47:04.667Z,52.14
2023-01-07T08:48:04.673Z,50.17
2023-01-07T08:49:04.687Z,50.26
2023-01-07T08:50:04.687Z,49.72
2023-01-07T08:51:04.708Z,49.34
2023-01-07T08:52:04.709Z,48.30
2023-01-07T08:53:04.718Z,47.34
2023-01-07T08:54:04.717Z,47.06
2023-01-07T08:55:04.829Z,47.28
2023-01-07T08:56:04.765Z,46.90
2023-01-07T08:57:04.745Z,47.56
2023-01-07T08:58:04.744Z,47.94
2023-01-07T08:59:04.763Z,47.28
2023-01-07T09:00:04.825Z,47.09
2023-01-07T09:01:04.882Z,45.95
2023-01-07T09:02:05.068Z,45.78
2023-01-07T09:03:04.792Z,46.64
2023-01-07T09:04:04.798Z,46.64
2023-01-07T09:05:04.807Z,46.16
2023-01-07T09:06:04.814Z,46.45
2023-01-07T09:07:04.825Z,45.12
2023-01-07T09:08:04.830Z,44.26
2023-01-07T09:09:04.846Z,43.31
2023-01-07T09:10:04.853Z,44.07
2023-01-07T09:11:04.854Z,43.88
2023-01-07T09:12:04.871Z,44.26
2023-01-07T09:13:04.886Z,44.67
2023-01-07T09:14:04.877Z,43.12
2023-01-07T09:15:04.891Z,42.47
2023-01-07T09:16:04.965Z,42.10
2023-01-07T09:17:04.962Z,42.46
2023-01-07T09:18:05.020Z,42.29
2023-01-07T09:19:04.927Z,43.05
2023-01-07T09:20:04.929Z,43.52
2023-01-07T09:21:04.947Z,43.14
2023-01-07T09:22:04.955Z,44.09
2023-01-07T09:23:04.958Z,44.76
2023-01-07T09:24:04.963Z,45.35
2023-01-07T09:25:04.974Z,44.78
2023-01-07T09:26:04.978Z,44.97
2023-01-07T09:27:04.991Z,44.68
2023-01-07T09:28:05.015Z,44.67
2023-01-07T09:29:05.018Z,44.49
2023-01-07T09:30:05.014Z,44.76
2023-01-07T09:31:05.035Z,44.76
2023-01-07T09:32:05.031Z,44.85
2023-01-07T09:33:05.051Z,44.47
2023-01-07T09:34:05.158Z,44.28
2023-01-07T09:35:05.069Z,44.19
2023-01-07T09:36:05.069Z,43.90
2023-01-07T09:37:05.080Z,43.62
2023-01-07T09:38:05.092Z,42.95
2023-01-07T09:39:05.096Z,43.80
2023-01-07T09:40:05.112Z,44.57
2023-01-07T09:41:05.116Z,43.80
2023-01-07T09:42:05.134Z,44.09
2023-01-07T09:43:05.139Z,45.23
2023-01-07T09:44:05.135Z,44.19
2023-01-07T09:45:05.153Z,43.90
2023-01-07T09:46:05.218Z,42.86
2023-01-07T09:47:05.164Z,43.80
2023-01-07T09:48:05.177Z,43.05
2023-01-07T09:49:05.190Z,43.07
2023-01-07T09:50:05.310Z,43.45
2023-01-07T09:51:05.210Z,43.16
2023-01-07T09:52:05.208Z,44.31
2023-01-07T09:53:05.226Z,43.07
2023-01-07T09:54:05.222Z,42.97
2023-01-07T09:55:05.240Z,42.50
2023-01-07T09:56:11.614Z,44.02
2023-01-07T09:57:05.267Z,43.19
2023-01-07T09:58:05.262Z,42.24
2023-01-07T09:59:05.273Z,42.16
2023-01-07T10:00:05.284Z,42.04
2023-01-07T10:01:05.342Z,40.81
2023-01-07T10:02:05.325Z,40.33
2023-01-07T10:03:05.317Z,40.62
2023-01-07T10:04:05.468Z,40.90
2023-01-07T10:05:05.353Z,41.28
2023-01-07T10:06:05.561Z,41.59
2023-01-07T10:07:05.355Z,42.56
2023-01-07T10:08:31.119Z,42.76
2023-01-07T10:09:05.372Z,40.85
2023-01-07T10:10:05.469Z,39.50
2023-01-07T10:11:05.387Z,39.28
2023-01-07T10:12:05.400Z,38.90
2023-01-07T10:13:05.410Z,39.78
2023-01-07T10:14:05.416Z,39.86
2023-01-07T10:15:05.430Z,39.95
2023-01-07T10:16:05.549Z,40.83
2023-01-07T10:17:05.462Z,40.06
2023-01-07T10:18:05.459Z,40.37
2023-01-07T10:19:05.480Z,40.28
2023-01-07T10:20:05.494Z,39.97
2023-01-07T10:21:05.494Z,40.66
2023-01-07T10:22:05.614Z,41.80
2023-01-07T10:23:05.511Z,40.75
2023-01-07T10:24:05.528Z,39.80
2023-01-07T10:25:05.535Z,41.13
2023-01-07T10:26:05.540Z,41.99
2023-01-07T10:27:05.554Z,41.23
2023-01-07T10:28:05.565Z,40.37
2023-01-07T10:29:05.578Z,41.23
2023-01-07T10:30:05.581Z,42.11
2023-01-07T10:31:05.603Z,39.90
2023-01-07T10:32:05.606Z,39.21
2023-01-07T10:33:05.621Z,39.80
2023-01-07T10:34:05.632Z,40.85
2023-01-07T10:35:05.661Z,40.37
2023-01-07T10:36:05.650Z,40.28
2023-01-07T10:37:05.660Z,39.61
2023-01-07T10:38:05.789Z,40.28
2023-01-07T10:39:05.687Z,40.37
2023-01-07T10:40:05.696Z,40.68
2023-01-07T10:41:05.709Z,39.32
2023-01-07T10:42:05.718Z,39.92
2023-01-07T10:43:05.740Z,39.63
2023-01-07T10:44:05.745Z,39.23
2023-01-07T10:45:05.752Z,39.42
2023-01-07T10:46:05.879Z,39.82
2023-01-07T10:47:05.774Z,39.92
2023-01-07T10:48:05.784Z,40.20
2023-01-07T10:49:05.799Z,37.99
2023-01-07T10:50:05.822Z,39.15
2023-01-07T10:51:05.819Z,38.20
2023-01-07T10:52:05.831Z,38.96
2023-01-07T10:53:05.850Z,37.99
2023-01-07T10:54:05.971Z,38.28
2023-01-07T10:55:05.880Z,39.06
2023-01-07T10:56:05.909Z,39.15
2023-01-07T10:57:05.893Z,39.06
2023-01-07T10:58:06.002Z,39.23
2023-01-07T10:59:05.910Z,39.15
2023-01-07T11:00:05.920Z,39.73
2023-01-07T11:01:06.130Z,37.99
2023-01-07T11:02:06.184Z,38.56
2023-01-07T11:03:06.026Z,38.95
2023-01-07T11:04:05.981Z,39.14
2023-01-07T11:05:05.991Z,39.23
2023-01-07T11:06:05.991Z,39.42
2023-01-07T11:07:06.023Z,40.48
2023-01-07T11:08:06.017Z,41.27
2023-01-07T11:09:06.031Z,39.65
2023-01-07T11:10:06.075Z,37.92
2023-01-07T11:11:06.057Z,39.15
2023-01-07T11:12:06.068Z,39.06
2023-01-07T11:13:06.078Z,39.15
2023-01-07T11:14:06.096Z,39.06
2023-01-07T11:15:06.110Z,39.15
2023-01-07T11:16:06.112Z,39.53
2023-01-07T11:17:06.123Z,38.49
2023-01-07T11:18:06.146Z,39.25
2023-01-07T11:19:06.161Z,40.70
2023-01-07T11:20:06.197Z,40.80
2023-01-07T11:21:06.177Z,37.74
2023-01-07T11:22:06.189Z,36.68
2023-01-07T11:23:06.195Z,37.34
2023-01-07T11:24:06.214Z,37.54
2023-01-07T11:25:06.220Z,38.39
2023-01-07T11:26:06.349Z,37.25
2023-01-07T11:27:06.249Z,37.44
2023-01-07T11:28:06.262Z,37.54
2023-01-07T11:29:06.328Z,38.01
2023-01-07T11:30:06.299Z,37.90
2023-01-07T11:31:06.292Z,36.77
2023-01-07T11:32:06.449Z,36.98
2023-01-07T11:33:06.315Z,37.46
2023-01-07T11:34:06.333Z,36.69
2023-01-07T11:35:06.367Z,37.08
2023-01-07T11:36:06.367Z,36.88
2023-01-07T11:37:06.381Z,36.01
2023-01-07T11:38:06.387Z,36.20
2023-01-07T11:39:06.392Z,37.25
2023-01-07T11:40:06.412Z,37.27
2023-01-07T11:41:06.442Z,37.92
2023-01-07T11:42:06.568Z,39.34
2023-01-07T11:43:06.441Z,39.44
2023-01-07T11:44:06.459Z,38.68
2023-01-07T11:45:06.466Z,38.98
2023-01-07T11:46:19.106Z,39.08
2023-01-07T11:47:06.491Z,39.65
2023-01-07T11:48:06.537Z,40.81
2023-01-07T11:49:06.520Z,39.39
2023-01-07T11:50:06.529Z,39.76
2023-01-07T11:51:06.545Z,41.41
2023-01-07T11:52:06.556Z,40.72
2023-01-07T11:53:06.566Z,39.10
2023-01-07T11:54:06.586Z,39.95
2023-01-07T11:55:06.595Z,40.63
2023-01-07T11:56:06.615Z,41.41
2023-01-07T11:57:06.618Z,40.53
2023-01-07T11:58:28.667Z,39.58
2023-01-07T11:59:06.644Z,39.75
2023-01-07T12:00:06.691Z,40.99
2023-01-07T12:01:06.837Z,40.41
2023-01-07T12:02:06.768Z,39.04
2023-01-07T12:03:06.744Z,40.87
2023-01-07T12:04:06.716Z,40.01
2023-01-07T12:05:06.728Z,39.75
2023-01-07T12:06:06.748Z,40.53
2023-01-07T12:07:06.754Z,39.08
2023-01-07T12:08:06.761Z,39.17
2023-01-07T12:09:06.775Z,38.89
2023-01-07T12:10:06.791Z,39.84
2023-01-07T12:11:06.801Z,39.08
2023-01-07T12:12:06.832Z,39.06
2023-01-07T12:13:06.827Z,39.44
2023-01-07T12:14:06.961Z,38.98
2023-01-07T12:15:06.863Z,38.87
2023-01-07T12:16:06.960Z,38.96
2023-01-07T12:17:06.888Z,39.17
2023-01-07T12:18:06.994Z,39.17
2023-01-07T12:19:06.905Z,39.15
2023-01-07T12:20:06.962Z,40.60
2023-01-07T12:21:06.938Z,40.89
2023-01-07T12:22:06.960Z,41.00
2023-01-07T12:23:07.011Z,40.53
2023-01-07T12:24:07.014Z,39.56
2023-01-07T12:25:06.987Z,39.08
2023-01-07T12:26:07.001Z,39.56
2023-01-07T12:27:07.012Z,39.56
2023-01-07T12:28:07.032Z,39.56
2023-01-07T12:29:07.060Z,39.27
2023-01-07T12:30:07.219Z,38.03
2023-01-07T12:31:07.144Z,36.14
2023-01-07T12:32:07.079Z,35.84
2023-01-07T12:33:07.091Z,35.76
2023-01-07T12:34:07.103Z,36.12
2023-01-07T12:35:15.125Z,36.05
2023-01-07T12:36:07.129Z,36.71
2023-01-07T12:37:07.145Z,37.48
2023-01-07T12:38:07.192Z,37.54
2023-01-07T12:39:07.173Z,38.39
2023-01-07T12:40:07.185Z,39.06
2023-01-07T12:41:07.194Z,37.93
2023-01-07T12:42:07.210Z,36.79
2023-01-07T12:43:07.223Z,37.84
2023-01-07T12:44:07.242Z,37.82
2023-01-07T12:45:07.249Z,38.01
2023-01-07T12:46:07.458Z,38.98
2023-01-07T12:47:30.505Z,38.32
2023-01-07T12:48:07.291Z,36.79
2023-01-07T12:49:07.314Z,36.52
2023-01-07T12:50:07.313Z,36.12
2023-01-07T12:51:07.328Z,36.03
2023-01-07T12:52:07.349Z,36.39
2023-01-07T12:53:07.356Z,36.10